Destin, FL (32541)

12:22 AM CDT on September 02, 2015 (GMT -0500)
Destin Water Users | | Change Station
CLOSE
Current Station
Personal Weather Station
Location: Destin, FL
Elevation: 26 ft
Nearby Weather Stations

Elev 26 ft 30.39 °N, 86.48 °W | Updated 10 seconds ago

Partly Cloudy
Partly Cloudy
80.6 °F
Feels Like 85 °F
N
0.0
Wind Variable Wind from WSW
Gusts 0.0 mph

Today
High -- | Low -- °F
--% Chance of Precip.
Yesterday
High -- | Low -- °F
Precip. -- in
6:23 AM 7:07 PM
Waning Gibbous, 83% visible
Pressure 30.05 in
Visibility 10.0 miles
Clouds Few 6500 ft
Heat Index 85 °F
Dew Point 72 °F
Humidity 76%
Rainfall 0.00 in
Snow Depth Not available.
UV 0 out of 12
Pollen 7.90 out of 12
Air Quality Not available.
Flu Activity Not available.
METAR KDTS 020453Z AUTO 00000KT 10SM FEW065 27/23 A3005 RMK AO2 SLP176 T02670233 TSNO
Pressure 30.05 in
Visibility 10.0 miles
Clouds Few 6500 ft
Heat Index 85 °F
Dew Point 72 °F
Humidity 76%
Rainfall 0.00 in
Snow Depth Not available.
UV 0 out of 12
Pollen 7.90 out of 12
Air Quality Not available.
Flu Activity Not available.
METAR KDTS 020453Z AUTO 00000KT 10SM FEW065 27/23 A3005 RMK AO2 SLP176 T02670233 TSNO

10-Day Weather Forecast

×

Almanac

Astronomy

Sep. 02, 2015 Rise Set
Actual Time
Civil Twilight
Nautical Twilight
Astronomical Twilight
Moon
Length of Visible Light
Length of Day
Tomorrow will be .
, % of the Moon is Illuminated

Today's Extremes

State Highs State Lows

Community

WunderPhotos

Upload Photos

1,851,705 photos uploaded!

WunderBlogs® & News

Nearby

Air Quality

  Air Quality AQ Index Pollutant
Not available.

Snow Depth

Station Depth Elevation

Earthquake Activity

City Distance Mag. Time & Date
Minimum magnitude displayed is 2.5.

Coastal Water Temperatures

Place Temperature

Stations

Nearby Weather Stations

Station Location Temp. Windchill Dew Point Humidity Wind Precip. Elev Updated Type